Time;durP1;ratioP1;P1;durP2;ratioP2;P2;SDS_P1;SDS_P2;PMS_P1;PMS_P2;Temp;Humidity;BMP_temperature;BMP_pressure;BME280_temperature;BME280_humidity;BME280_pressure;Samples;Min_cycle;Max_cycle;Signal;HPM_P1;HPM_P2
2021/09/01 00:01:59;;;;;;;16.15;4.35;;;;;;;;;;5105644;28;20023;-69
2021/09/01 00:04:26;;;;;;;13.65;5.00;;;;;;;;;;5110965;28;20038;-68
2021/09/01 00:06:52;;;;;;;15.65;4.82;;;;;;;;;;5113376;28;20110;-69
2021/09/01 00:09:18;;;;;;;14.55;5.07;;;;;;;;;;5095170;28;20027;-70
2021/09/01 00:11:44;;;;;;;20.95;5.55;;;;;;;;;;5108126;28;20401;-68
2021/09/01 00:14:10;;;;;;;11.18;3.97;;;;;;;;;;5109769;28;20401;-69
2021/09/01 00:16:36;;;;;;;14.20;5.32;;;;;;;;;;5113625;28;20012;-69
2021/09/01 00:19:04;;;;;;;20.05;5.00;;;;;;;;;;5095577;28;20030;-68
2021/09/01 00:21:30;;;;;;;18.88;5.53;;;;;;;;;;5112374;28;20027;-69
2021/09/01 00:23:56;;;;;;;16.25;4.20;;;;;;;;;;5112501;28;20095;-68
2021/09/01 00:26:23;;;;;;;17.02;5.22;;;;;;;;;;5112826;28;20031;-71
2021/09/01 00:28:49;;;;;;;12.68;4.70;;;;;;;;;;5089417;28;20046;-68
2021/09/01 00:31:15;;;;;;;20.08;5.40;;;;;;;;;;5112404;28;20374;-67
2021/09/01 00:33:42;;;;;;;15.85;4.78;;;;;;;;;;5110263;28;20497;-68
2021/09/01 00:36:08;;;;;;;17.83;4.75;;;;;;;;;;5112057;28;20039;-68
2021/09/01 00:38:34;;;;;;;21.88;5.38;;;;;;;;;;5094159;28;20119;-69
2021/09/01 00:41:00;;;;;;;14.75;4.63;;;;;;;;;;5113215;28;20020;-67
2021/09/01 00:43:26;;;;;;;12.40;5.07;;;;;;;;;;5111323;28;20027;-68
2021/09/01 00:45:52;;;;;;;16.38;5.47;;;;;;;;;;5112483;28;20023;-69
2021/09/01 00:48:19;;;;;;;15.13;4.30;;;;;;;;;;5111987;28;20026;-68
2021/09/01 00:50:46;;;;;;;19.63;4.78;;;;;;;;;;5109940;28;20040;-69
2021/09/01 00:53:14;;;;;;;15.27;4.63;;;;;;;;;;5110665;28;20020;-68
2021/09/01 00:55:44;;;;;;;13.45;4.72;;;;;;;;;;5113203;28;20036;-70
2021/09/01 00:58:12;;;;;;;17.98;4.70;;;;;;;;;;5093775;28;20026;-67
2021/09/01 01:00:53;;;;;;;13.88;4.75;;;;;;;;;;5104303;28;20031;-67
2021/09/01 01:03:19;;;;;;;13.48;4.38;;;;;;;;;;5106369;28;20081;-67
2021/09/01 01:05:45;;;;;;;11.35;4.45;;;;;;;;;;5101142;28;20042;-69
2021/09/01 01:08:12;;;;;;;14.48;4.93;;;;;;;;;;5112416;28;20032;-69
2021/09/01 01:10:38;;;;;;;29.60;5.47;;;;;;;;;;5101305;28;20501;-69
2021/09/01 01:13:04;;;;;;;12.80;4.07;;;;;;;;;;5110388;28;20047;-69
2021/09/01 01:15:31;;;;;;;15.70;5.30;;;;;;;;;;5111349;28;20046;-70
2021/09/01 01:17:57;;;;;;;16.00;5.25;;;;;;;;;;5111850;28;20036;-70
2021/09/01 01:20:23;;;;;;;16.48;4.40;;;;;;;;;;5094739;28;20255;-69
2021/09/01 01:22:49;;;;;;;17.65;4.38;;;;;;;;;;5104219;28;20051;-68
2021/09/01 01:25:41;;;;;;;12.25;4.13;;;;;;;;;;5110330;28;20040;-68
2021/09/01 01:28:08;;;;;;;12.95;5.10;;;;;;;;;;5100646;27;20055;-68
2021/09/01 01:30:34;;;;;;;14.23;4.50;;;;;;;;;;5109803;28;20028;-67
2021/09/01 01:33:01;;;;;;;13.73;4.50;;;;;;;;;;5108560;28;20110;-68
2021/09/01 01:35:28;;;;;;;9.85;4.63;;;;;;;;;;5109476;28;20031;-68
2021/09/01 01:37:55;;;;;;;16.80;4.35;;;;;;;;;;5111205;28;20034;-68
2021/09/01 01:40:21;;;;;;;17.25;4.28;;;;;;;;;;5111396;28;20031;-69
2021/09/01 01:42:49;;;;;;;15.05;4.82;;;;;;;;;;5090856;28;20115;-69
2021/09/01 01:45:15;;;;;;;14.90;4.45;;;;;;;;;;5111441;28;20032;-68
2021/09/01 01:47:41;;;;;;;19.08;5.25;;;;;;;;;;5105592;28;20036;-68
2021/09/01 01:50:07;;;;;;;16.10;5.38;;;;;;;;;;5091134;28;20134;-68
2021/09/01 01:52:34;;;;;;;16.30;5.22;;;;;;;;;;5108246;28;20097;-68
2021/09/01 01:55:00;;;;;;;14.93;5.00;;;;;;;;;;5110720;28;20031;-69
2021/09/01 01:57:26;;;;;;;13.80;5.25;;;;;;;;;;5089868;28;20039;-68
2021/09/01 01:59:52;;;;;;;26.15;5.28;;;;;;;;;;5110673;28;20027;-69
2021/09/01 02:02:18;;;;;;;12.88;4.63;;;;;;;;;;5103473;28;20027;-68
2021/09/01 02:04:44;;;;;;;16.55;5.65;;;;;;;;;;5092325;28;20039;-69
2021/09/01 02:07:10;;;;;;;18.67;5.00;;;;;;;;;;5110742;28;20170;-69
2021/09/01 02:09:36;;;;;;;21.98;5.18;;;;;;;;;;5108732;28;20028;-69
2021/09/01 02:12:02;;;;;;;17.23;6.55;;;;;;;;;;5110132;28;20027;-69
2021/09/01 02:14:28;;;;;;;20.50;6.50;;;;;;;;;;5089952;28;20059;-68
2021/09/01 02:16:54;;;;;;;16.20;5.32;;;;;;;;;;5111232;28;20046;-68
2021/09/01 02:19:20;;;;;;;17.08;4.93;;;;;;;;;;5090384;28;20161;-68
2021/09/01 02:21:46;;;;;;;18.17;5.93;;;;;;;;;;5092902;28;20027;-70
2021/09/01 02:24:12;;;;;;;19.13;4.85;;;;;;;;;;5090912;28;20045;-68
2021/09/01 02:26:38;;;;;;;16.65;5.25;;;;;;;;;;5098248;28;20015;-68
2021/09/01 02:29:04;;;;;;;17.23;5.13;;;;;;;;;;5094565;28;20395;-68
2021/09/01 02:31:30;;;;;;;14.23;3.85;;;;;;;;;;5106933;28;20023;-68
2021/09/01 02:33:57;;;;;;;16.48;4.82;;;;;;;;;;5102744;28;20032;-68
2021/09/01 02:36:23;;;;;;;16.42;5.30;;;;;;;;;;5110562;28;20126;-68
2021/09/01 02:38:49;;;;;;;16.58;4.32;;;;;;;;;;5109472;28;20024;-67
2021/09/01 02:41:15;;;;;;;11.75;4.85;;;;;;;;;;5108504;28;20028;-68
2021/09/01 02:43:41;;;;;;;18.38;4.57;;;;;;;;;;5109507;28;20059;-68
2021/09/01 02:46:07;;;;;;;15.35;4.85;;;;;;;;;;5110224;28;20549;-68
2021/09/01 02:48:33;;;;;;;13.88;4.72;;;;;;;;;;5109302;28;20096;-68
2021/09/01 02:50:59;;;;;;;13.52;4.40;;;;;;;;;;5103130;28;20028;-68
2021/09/01 02:53:25;;;;;;;18.40;4.72;;;;;;;;;;5108958;28;20036;-68
2021/09/01 02:55:51;;;;;;;10.68;4.68;;;;;;;;;;5105235;28;20111;-68
2021/09/01 02:58:17;;;;;;;12.85;4.10;;;;;;;;;;5111083;28;20032;-68
2021/09/01 03:00:43;;;;;;;13.13;4.70;;;;;;;;;;5110596;28;20027;-68
2021/09/01 03:03:10;;;;;;;15.45;4.88;;;;;;;;;;5108107;28;20035;-68
2021/09/01 03:05:36;;;;;;;11.23;4.30;;;;;;;;;;5109177;28;20027;-68
2021/09/01 03:08:02;;;;;;;15.93;4.55;;;;;;;;;;5110225;28;20032;-68
2021/09/01 03:10:28;;;;;;;13.40;4.40;;;;;;;;;;5110451;28;20035;-67
2021/09/01 03:12:54;;;;;;;9.40;4.05;;;;;;;;;;5104878;28;20026;-68
2021/09/01 03:15:20;;;;;;;13.70;4.55;;;;;;;;;;5108621;28;20156;-68
2021/09/01 03:17:46;;;;;;;13.70;4.40;;;;;;;;;;5110089;28;20023;-67
2021/09/01 03:20:12;;;;;;;16.23;4.90;;;;;;;;;;5101786;28;20027;-68
2021/09/01 03:22:38;;;;;;;12.65;3.90;;;;;;;;;;5101456;28;20029;-68
2021/09/01 03:25:05;;;;;;;16.27;5.15;;;;;;;;;;5101362;28;20036;-67
2021/09/01 03:27:31;;;;;;;15.60;4.80;;;;;;;;;;5110556;28;20027;-68
2021/09/01 03:29:57;;;;;;;17.92;4.85;;;;;;;;;;5109839;28;20564;-67
2021/09/01 03:32:23;;;;;;;14.00;3.85;;;;;;;;;;5107913;28;20055;-68
2021/09/01 03:34:49;;;;;;;11.80;4.72;;;;;;;;;;5110731;28;20023;-68
2021/09/01 03:37:15;;;;;;;12.25;4.80;;;;;;;;;;5110293;28;20060;-68
2021/09/01 03:39:41;;;;;;;14.00;4.93;;;;;;;;;;5104938;28;20015;-68
2021/09/01 03:42:07;;;;;;;11.80;4.25;;;;;;;;;;5111455;28;20024;-68
2021/09/01 03:44:33;;;;;;;13.43;4.15;;;;;;;;;;5113243;28;20027;-68
2021/09/01 03:46:59;;;;;;;19.02;6.38;;;;;;;;;;5112341;28;20028;-68
2021/09/01 03:49:26;;;;;;;15.57;4.50;;;;;;;;;;5114493;28;20024;-69
2021/09/01 03:51:52;;;;;;;15.68;4.88;;;;;;;;;;5113756;28;20047;-68
2021/09/01 03:54:18;;;;;;;17.33;4.85;;;;;;;;;;5105335;28;20077;-68
2021/09/01 03:56:44;;;;;;;14.70;4.28;;;;;;;;;;5106509;28;20114;-68
2021/09/01 03:59:10;;;;;;;12.18;4.05;;;;;;;;;;5110868;28;20455;-69
2021/09/01 04:01:36;;;;;;;15.50;4.10;;;;;;;;;;5112852;28;20024;-68
2021/09/01 04:04:02;;;;;;;19.70;5.03;;;;;;;;;;5096366;28;20028;-69
2021/09/01 04:06:29;;;;;;;15.45;4.75;;;;;;;;;;5111022;28;20581;-67
2021/09/01 04:08:55;;;;;;;11.32;3.78;;;;;;;;;;5114110;28;20081;-68
2021/09/01 04:11:21;;;;;;;12.63;4.60;;;;;;;;;;5104293;28;20038;-68
2021/09/01 04:13:47;;;;;;;10.50;4.35;;;;;;;;;;5112580;28;20084;-71
2021/09/01 04:16:13;;;;;;;17.38;4.63;;;;;;;;;;5111939;28;20436;-68
2021/09/01 04:18:39;;;;;;;26.83;5.03;;;;;;;;;;5106167;28;20080;-68
2021/09/01 04:21:05;;;;;;;11.23;4.22;;;;;;;;;;5099338;28;20040;-68
2021/09/01 04:23:32;;;;;;;16.08;5.40;;;;;;;;;;5091425;28;20032;-68
2021/09/01 04:25:58;;;;;;;9.23;3.50;;;;;;;;;;5112759;28;20066;-69
2021/09/01 04:28:24;;;;;;;15.80;4.47;;;;;;;;;;5101838;28;20047;-68
2021/09/01 04:30:50;;;;;;;10.85;3.95;;;;;;;;;;5111753;28;20020;-68
2021/09/01 04:33:16;;;;;;;12.25;4.80;;;;;;;;;;5092600;28;20031;-68
2021/09/01 04:35:42;;;;;;;19.85;5.05;;;;;;;;;;5112438;28;20177;-68
2021/09/01 04:38:09;;;;;;;14.98;4.15;;;;;;;;;;5112094;28;20020;-68
2021/09/01 04:40:35;;;;;;;13.13;4.18;;;;;;;;;;5112871;28;20077;-68
2021/09/01 04:43:01;;;;;;;14.13;4.40;;;;;;;;;;5092953;28;20024;-67
2021/09/01 04:45:27;;;;;;;11.98;4.47;;;;;;;;;;5091051;28;21103;-67
2021/09/01 04:47:54;;;;;;;13.70;4.25;;;;;;;;;;5112009;28;20024;-68
2021/09/01 04:50:20;;;;;;;11.63;3.70;;;;;;;;;;5090950;28;20058;-68
2021/09/01 04:52:46;;;;;;;14.32;4.22;;;;;;;;;;5107581;28;20031;-68
2021/09/01 04:55:13;;;;;;;18.10;4.55;;;;;;;;;;5092223;28;20126;-68
2021/09/01 04:57:39;;;;;;;14.38;4.45;;;;;;;;;;5108144;28;20034;-68
2021/09/01 05:00:06;;;;;;;12.25;4.18;;;;;;;;;;5111141;28;20023;-68
2021/09/01 05:02:32;;;;;;;11.75;3.92;;;;;;;;;;5110160;28;20062;-68
2021/09/01 05:04:58;;;;;;;13.75;4.38;;;;;;;;;;5111123;28;20051;-68
2021/09/01 05:07:24;;;;;;;14.13;4.20;;;;;;;;;;5110338;28;20030;-68
2021/09/01 05:09:50;;;;;;;16.67;5.00;;;;;;;;;;5109081;28;20020;-68
2021/09/01 05:12:16;;;;;;;15.20;4.53;;;;;;;;;;5110873;28;20027;-68
2021/09/01 05:14:42;;;;;;;10.95;3.85;;;;;;;;;;5110493;28;20024;-68
2021/09/01 05:17:08;;;;;;;10.77;3.90;;;;;;;;;;5108484;28;20035;-67
2021/09/01 05:19:34;;;;;;;10.82;3.97;;;;;;;;;;5104981;27;20024;-67
2021/09/01 05:22:04;;;;;;;13.73;4.45;;;;;;;;;;5110260;28;20012;-68
2021/09/01 05:24:36;;;;;;;11.02;3.63;;;;;;;;;;5109371;28;20114;-68
2021/09/01 05:27:10;;;;;;;17.92;4.07;;;;;;;;;;5106747;28;20047;-68
2021/09/01 05:29:38;;;;;;;12.77;4.15;;;;;;;;;;5109529;28;20530;-68
2021/09/01 05:32:04;;;;;;;15.15;4.65;;;;;;;;;;5091127;28;20063;-68
2021/09/01 05:34:31;;;;;;;13.82;4.03;;;;;;;;;;5107662;28;20040;-68
2021/09/01 05:36:57;;;;;;;14.65;4.13;;;;;;;;;;5108623;28;20057;-68
2021/09/01 05:39:23;;;;;;;12.63;4.22;;;;;;;;;;5108610;28;20030;-67
2021/09/01 05:41:49;;;;;;;13.45;3.78;;;;;;;;;;5107390;28;20512;-68
2021/09/01 05:44:15;;;;;;;17.30;4.05;;;;;;;;;;5108896;28;20031;-68
2021/09/01 05:46:42;;;;;;;14.18;4.15;;;;;;;;;;5108278;28;20500;-68
2021/09/01 05:49:09;;;;;;;16.40;4.78;;;;;;;;;;5108968;28;20060;-68
2021/09/01 05:51:37;;;;;;;12.40;3.90;;;;;;;;;;5107657;28;20059;-70
2021/09/01 05:54:03;;;;;;;11.52;4.40;;;;;;;;;;5107348;28;20053;-67
2021/09/01 05:56:29;;;;;;;11.77;3.88;;;;;;;;;;5107371;28;20019;-67
2021/09/01 05:58:58;;;;;;;14.63;4.22;;;;;;;;;;5107362;28;20047;-69
2021/09/01 06:01:29;;;;;;;13.73;4.32;;;;;;;;;;5110006;28;20051;-68
2021/09/01 06:03:59;;;;;;;16.47;4.40;;;;;;;;;;5107263;28;20031;-67
2021/09/01 06:06:26;;;;;;;13.60;4.22;;;;;;;;;;5089585;28;20797;-68
2021/09/01 06:08:52;;;;;;;13.98;3.90;;;;;;;;;;5109898;28;20035;-68
2021/09/01 06:11:23;;;;;;;10.85;3.90;;;;;;;;;;5107810;28;20092;-67
2021/09/01 06:13:49;;;;;;;15.77;5.18;;;;;;;;;;5107498;28;20028;-68
2021/09/01 06:16:15;;;;;;;17.08;4.70;;;;;;;;;;5102482;28;20028;-68
2021/09/01 06:18:41;;;;;;;13.82;4.43;;;;;;;;;;5090615;28;20078;-68
2021/09/01 06:21:07;;;;;;;15.07;4.80;;;;;;;;;;5109557;28;20023;-68
2021/09/01 06:23:34;;;;;;;12.52;4.65;;;;;;;;;;5107146;28;20012;-68
2021/09/01 06:26:02;;;;;;;15.23;4.50;;;;;;;;;;5105311;28;20061;-68
2021/09/01 06:28:28;;;;;;;13.70;4.20;;;;;;;;;;5106206;28;20024;-67
2021/09/01 06:30:54;;;;;;;18.58;5.72;;;;;;;;;;5107145;28;20011;-67
2021/09/01 06:33:20;;;;;;;18.83;5.40;;;;;;;;;;5105279;28;20042;-68
2021/09/01 06:35:49;;;;;;;13.48;4.30;;;;;;;;;;5101105;28;20031;-68
2021/09/01 06:38:15;;;;;;;18.25;4.95;;;;;;;;;;5107884;28;20032;-67
2021/09/01 06:40:41;;;;;;;15.05;4.50;;;;;;;;;;5104581;28;20028;-68
2021/09/01 06:43:08;;;;;;;12.85;4.63;;;;;;;;;;5102399;28;20095;-68
2021/09/01 06:45:34;;;;;;;13.77;4.35;;;;;;;;;;5103695;28;20103;-68
2021/09/01 06:48:00;;;;;;;10.40;4.20;;;;;;;;;;5104193;28;20031;-67
2021/09/01 06:50:27;;;;;;;17.25;5.28;;;;;;;;;;5102760;28;20089;-68
2021/09/01 06:52:54;;;;;;;16.80;4.80;;;;;;;;;;5102554;28;20508;-67
2021/09/01 06:55:21;;;;;;;16.08;4.75;;;;;;;;;;5104558;28;20036;-69
2021/09/01 06:57:47;;;;;;;14.93;4.97;;;;;;;;;;5103956;28;20035;-70
2021/09/01 07:00:14;;;;;;;17.88;4.30;;;;;;;;;;5103676;28;20020;-71
2021/09/01 07:02:41;;;;;;;15.02;3.95;;;;;;;;;;5100907;28;20550;-70
2021/09/01 07:05:08;;;;;;;13.20;4.25;;;;;;;;;;5102606;28;20024;-68
2021/09/01 07:07:34;;;;;;;16.35;4.78;;;;;;;;;;5083160;28;20035;-69
2021/09/01 07:10:00;;;;;;;12.68;4.78;;;;;;;;;;5105246;28;20026;-69
2021/09/01 07:12:28;;;;;;;18.90;4.88;;;;;;;;;;5082699;28;20265;-68
2021/09/01 07:14:54;;;;;;;11.63;3.65;;;;;;;;;;5106227;28;20135;-68
2021/09/01 07:17:20;;;;;;;12.32;4.10;;;;;;;;;;5106292;28;20583;-68
2021/09/01 07:19:47;;;;;;;11.68;4.45;;;;;;;;;;5109472;28;20032;-68
2021/09/01 07:22:13;;;;;;;13.65;4.38;;;;;;;;;;5107875;28;20080;-68
2021/09/01 07:24:39;;;;;;;18.52;3.65;;;;;;;;;;5108568;28;20111;-68
2021/09/01 07:27:05;;;;;;;14.05;4.45;;;;;;;;;;5108832;28;20031;-68
2021/09/01 07:29:31;;;;;;;13.32;3.85;;;;;;;;;;5107838;28;20020;-68
2021/09/01 07:31:57;;;;;;;13.82;3.88;;;;;;;;;;5106714;28;20027;-68
2021/09/01 07:34:23;;;;;;;16.50;4.57;;;;;;;;;;5106534;28;20028;-68
2021/09/01 07:36:49;;;;;;;13.40;4.18;;;;;;;;;;5108135;28;20020;-68
2021/09/01 07:39:15;;;;;;;14.43;3.67;;;;;;;;;;5089711;28;20036;-68
2021/09/01 07:41:41;;;;;;;12.40;3.83;;;;;;;;;;5111280;27;20012;-68
2021/09/01 07:44:07;;;;;;;15.60;4.35;;;;;;;;;;5091993;28;20072;-68
2021/09/01 07:46:34;;;;;;;16.98;5.07;;;;;;;;;;5112517;28;20030;-68
2021/09/01 07:49:00;;;;;;;14.48;4.45;;;;;;;;;;5113480;28;20023;-69
2021/09/01 07:51:27;;;;;;;10.55;3.47;;;;;;;;;;5112258;28;20438;-68
2021/09/01 07:53:53;;;;;;;12.27;3.80;;;;;;;;;;5111258;28;20481;-68
2021/09/01 07:56:20;;;;;;;12.50;3.40;;;;;;;;;;5112563;28;20469;-69
2021/09/01 07:58:46;;;;;;;10.65;3.80;;;;;;;;;;5113318;28;20019;-68
2021/09/01 08:01:12;;;;;;;8.57;3.35;;;;;;;;;;5110819;28;20073;-69
2021/09/01 08:03:38;;;;;;;21.70;4.90;;;;;;;;;;5111175;28;20027;-68
2021/09/01 08:06:07;;;;;;;8.82;3.42;;;;;;;;;;5112359;28;20023;-67
2021/09/01 08:08:33;;;;;;;15.32;4.72;;;;;;;;;;5093116;28;20036;-68
2021/09/01 08:10:59;;;;;;;15.60;4.10;;;;;;;;;;5112077;28;20073;-68
2021/09/01 08:13:25;;;;;;;14.98;4.82;;;;;;;;;;5109797;28;20568;-67
2021/09/01 08:15:51;;;;;;;12.27;3.65;;;;;;;;;;5109664;28;20028;-68
2021/09/01 08:18:17;;;;;;;13.50;3.60;;;;;;;;;;5106783;28;20024;-68
2021/09/01 08:20:44;;;;;;;9.57;3.70;;;;;;;;;;5107321;28;20024;-68
2021/09/01 08:23:10;;;;;;;11.40;3.78;;;;;;;;;;5108537;28;20470;-68
2021/09/01 08:25:36;;;;;;;11.18;3.20;;;;;;;;;;5107485;28;20030;-68
2021/09/01 08:28:02;;;;;;;12.15;3.60;;;;;;;;;;5108562;28;20032;-67
2021/09/01 08:30:28;;;;;;;14.13;4.15;;;;;;;;;;5105913;28;20023;-68
2021/09/01 08:32:54;;;;;;;14.77;3.40;;;;;;;;;;5105740;28;20024;-67
2021/09/01 08:35:20;;;;;;;13.35;4.35;;;;;;;;;;5107744;28;20020;-68
2021/09/01 08:37:49;;;;;;;16.60;5.07;;;;;;;;;;5110131;28;20043;-68
2021/09/01 08:40:15;;;;;;;14.88;4.25;;;;;;;;;;5108170;28;20076;-68
2021/09/01 08:42:43;;;;;;;13.77;3.92;;;;;;;;;;5105322;28;20406;-67
2021/09/01 08:45:09;;;;;;;14.73;4.15;;;;;;;;;;5109479;28;20093;-68
2021/09/01 08:47:36;;;;;;;12.40;4.07;;;;;;;;;;5089488;28;20040;-68
2021/09/01 08:50:05;;;;;;;13.35;3.45;;;;;;;;;;5110370;28;20036;-68
2021/09/01 08:52:31;;;;;;;8.95;4.03;;;;;;;;;;5106723;28;20062;-67
2021/09/01 08:54:57;;;;;;;11.52;4.38;;;;;;;;;;5110217;28;20482;-68
2021/09/01 08:57:23;;;;;;;13.23;3.70;;;;;;;;;;5109020;28;20030;-68
2021/09/01 08:59:49;;;;;;;11.63;3.70;;;;;;;;;;5111062;28;20019;-68
2021/09/01 09:02:15;;;;;;;11.65;3.67;;;;;;;;;;5107845;28;20023;-68
2021/09/01 09:04:41;;;;;;;14.35;4.45;;;;;;;;;;5108813;28;20390;-68
2021/09/01 09:07:08;;;;;;;17.42;4.50;;;;;;;;;;5089768;28;20401;-68
2021/09/01 09:09:39;;;;;;;11.65;3.88;;;;;;;;;;5092627;28;20481;-68
2021/09/01 09:12:07;;;;;;;13.93;3.60;;;;;;;;;;5109610;28;20036;-68
2021/09/01 09:14:34;;;;;;;11.85;3.97;;;;;;;;;;5087082;28;20049;-67
2021/09/01 09:17:01;;;;;;;9.90;3.80;;;;;;;;;;5109769;28;20036;-68
2021/09/01 09:19:46;;;;;;;13.73;4.07;;;;;;;;;;5110225;28;20023;-68
2021/09/01 09:22:13;;;;;;;9.05;3.95;;;;;;;;;;5107589;28;20448;-68
2021/09/01 09:24:39;;;;;;;9.48;2.95;;;;;;;;;;5108689;28;20023;-68
2021/09/01 09:27:09;;;;;;;10.30;3.55;;;;;;;;;;5108750;28;20027;-68
2021/09/01 09:29:35;;;;;;;12.73;3.53;;;;;;;;;;5112379;28;20123;-68
2021/09/01 09:32:03;;;;;;;14.30;4.00;;;;;;;;;;5110027;28;20031;-68
2021/09/01 09:34:35;;;;;;;12.15;3.67;;;;;;;;;;5104175;27;20035;-68
2021/09/01 09:37:02;;;;;;;8.80;3.17;;;;;;;;;;5107636;28;20052;-68
2021/09/01 09:39:41;;;;;;;12.85;4.15;;;;;;;;;;5110191;28;20034;-68
2021/09/01 09:42:07;;;;;;;13.63;3.78;;;;;;;;;;5107551;28;20023;-68
2021/09/01 09:44:33;;;;;;;16.50;4.07;;;;;;;;;;5109319;28;20028;-68
2021/09/01 09:47:00;;;;;;;10.98;3.88;;;;;;;;;;5109945;28;20032;-69
2021/09/01 09:49:32;;;;;;;13.20;3.80;;;;;;;;;;5110333;28;20027;-68
2021/09/01 09:51:58;;;;;;;10.85;3.42;;;;;;;;;;5104052;27;20047;-68
2021/09/01 09:54:26;;;;;;;9.93;3.40;;;;;;;;;;5105638;28;20064;-67
2021/09/01 09:57:05;;;;;;;11.23;3.28;;;;;;;;;;5106462;28;20051;-68
2021/09/01 09:59:32;;;;;;;10.60;3.38;;;;;;;;;;5095609;28;20114;-68
2021/09/01 10:01:59;;;;;;;9.32;3.28;;;;;;;;;;5104069;28;20015;-67
2021/09/01 10:04:26;;;;;;;8.93;2.90;;;;;;;;;;5107666;28;20102;-68
2021/09/01 10:06:52;;;;;;;8.50;2.33;;;;;;;;;;5106963;28;20079;-67
2021/09/01 10:09:19;;;;;;;7.97;2.60;;;;;;;;;;5085304;28;20069;-67
2021/09/01 10:11:46;;;;;;;5.78;2.00;;;;;;;;;;5109896;28;20579;-68
2021/09/01 10:14:14;;;;;;;8.32;2.00;;;;;;;;;;5104346;28;20051;-68
2021/09/01 10:16:43;;;;;;;8.70;2.25;;;;;;;;;;5110753;28;20019;-67
2021/09/01 10:19:14;;;;;;;7.53;2.05;;;;;;;;;;5107482;28;20114;-67
2021/09/01 10:21:43;;;;;;;7.80;1.88;;;;;;;;;;5111396;28;21416;-67
2021/09/01 10:24:17;;;;;;;7.40;2.10;;;;;;;;;;5086079;28;20486;-68
2021/09/01 10:26:57;;;;;;;5.80;2.08;;;;;;;;;;5108443;28;20028;-68
2021/09/01 10:29:38;;;;;;;6.85;2.03;;;;;;;;;;5104785;28;20016;-67
2021/09/01 10:32:19;;;;;;;7.90;2.85;;;;;;;;;;5109250;28;20039;-69
2021/09/01 10:34:45;;;;;;;15.48;3.53;;;;;;;;;;5108649;28;20031;-68
2021/09/01 10:37:31;;;;;;;10.55;2.90;;;;;;;;;;5102893;28;20024;-67
2021/09/01 10:39:57;;;;;;;8.98;2.70;;;;;;;;;;5106504;28;20016;-68
2021/09/01 10:42:42;;;;;;;9.40;3.10;;;;;;;;;;5107376;28;20019;-67
2021/09/01 10:45:10;;;;;;;11.63;3.10;;;;;;;;;;5107926;28;20058;-67
2021/09/01 10:47:59;;;;;;;9.65;2.53;;;;;;;;;;5089176;28;20477;-67
2021/09/01 10:50:37;;;;;;;11.30;3.00;;;;;;;;;;5094939;28;20508;-69
2021/09/01 10:53:05;;;;;;;7.47;2.50;;;;;;;;;;5106046;28;20485;-66
2021/09/01 10:55:32;;;;;;;9.75;2.75;;;;;;;;;;5088548;28;20447;-67
2021/09/01 10:58:14;;;;;;;8.75;2.55;;;;;;;;;;5090241;28;20136;-68
2021/09/01 11:00:40;;;;;;;8.63;2.13;;;;;;;;;;5107581;28;20027;-68
2021/09/01 11:03:07;;;;;;;7.57;1.95;;;;;;;;;;5096571;28;20552;-67
2021/09/01 11:05:33;;;;;;;7.40;2.30;;;;;;;;;;5104319;28;20043;-68
2021/09/01 11:07:59;;;;;;;7.25;2.35;;;;;;;;;;5105605;28;20066;-68
2021/09/01 11:10:27;;;;;;;10.85;2.22;;;;;;;;;;5082527;28;20073;-67
2021/09/01 11:12:57;;;;;;;6.05;2.33;;;;;;;;;;5102117;28;20028;-68
2021/09/01 11:15:23;;;;;;;6.00;2.08;;;;;;;;;;5103428;28;20451;-68
2021/09/01 11:17:49;;;;;;;5.60;2.00;;;;;;;;;;5104832;28;20051;-67
2021/09/01 11:20:15;;;;;;;8.35;2.33;;;;;;;;;;5106721;28;20469;-67
2021/09/01 11:22:42;;;;;;;4.85;1.95;;;;;;;;;;5100030;28;20031;-68
2021/09/01 11:25:11;;;;;;;10.02;2.10;;;;;;;;;;5105826;28;20035;-68
2021/09/01 11:27:48;;;;;;;6.25;2.13;;;;;;;;;;5107871;28;20481;-68
2021/09/01 11:30:15;;;;;;;5.40;2.15;;;;;;;;;;5102952;28;20022;-68
2021/09/01 11:32:42;;;;;;;5.97;1.67;;;;;;;;;;5085632;28;20040;-68
2021/09/01 11:35:11;;;;;;;5.03;1.67;;;;;;;;;;5105397;28;20024;-67
2021/09/01 11:37:37;;;;;;;8.23;2.35;;;;;;;;;;5106924;28;20524;-67
2021/09/01 11:40:03;;;;;;;7.38;2.03;;;;;;;;;;5088229;28;20869;-69
2021/09/01 11:42:34;;;;;;;8.90;2.22;;;;;;;;;;5106102;28;20215;-67
2021/09/01 11:45:00;;;;;;;5.35;1.73;;;;;;;;;;5105894;28;20055;-69
2021/09/01 11:47:27;;;;;;;5.93;1.65;;;;;;;;;;5104502;28;20051;-69
2021/09/01 11:49:54;;;;;;;8.65;2.03;;;;;;;;;;5106187;28;20027;-67
2021/09/01 11:52:28;;;;;;;5.50;1.63;;;;;;;;;;5104458;28;20047;-67
2021/09/01 11:54:54;;;;;;;3.70;1.20;;;;;;;;;;5105503;28;21343;-68
2021/09/01 11:57:23;;;;;;;4.25;1.08;;;;;;;;;;5108185;28;20031;-68
2021/09/01 11:59:49;;;;;;;5.40;1.45;;;;;;;;;;5088297;28;20493;-67
2021/09/01 12:02:20;;;;;;;8.95;2.03;;;;;;;;;;5111394;28;20024;-67
2021/09/01 12:04:46;;;;;;;4.47;1.27;;;;;;;;;;5110414;28;20020;-68
2021/09/01 12:07:12;;;;;;;3.15;1.00;;;;;;;;;;5108801;28;20548;-69
2021/09/01 12:09:38;;;;;;;7.70;1.30;;;;;;;;;;5108930;27;20146;-67
2021/09/01 12:12:07;;;;;;;4.55;1.55;;;;;;;;;;5109116;28;20031;-68
2021/09/01 12:14:33;;;;;;;7.03;1.88;;;;;;;;;;5108067;28;20140;-68
2021/09/01 12:17:16;;;;;;;3.97;1.33;;;;;;;;;;5109264;28;20051;-68
2021/09/01 12:19:49;;;;;;;4.13;1.55;;;;;;;;;;5110520;28;20050;-68
2021/09/01 12:22:34;;;;;;;4.10;2.03;;;;;;;;;;5106345;28;20028;-67
2021/09/01 12:25:07;;;;;;;5.55;1.48;;;;;;;;;;5108823;28;20036;-68
2021/09/01 12:27:37;;;;;;;6.88;1.10;;;;;;;;;;5109789;28;20588;-69
2021/09/01 12:30:05;;;;;;;5.82;1.50;;;;;;;;;;5108610;28;20035;-68
2021/09/01 12:32:31;;;;;;;3.85;1.40;;;;;;;;;;5105686;28;20528;-67
2021/09/01 12:35:03;;;;;;;4.90;1.40;;;;;;;;;;5108339;28;20023;-68
2021/09/01 12:37:30;;;;;;;7.38;1.73;;;;;;;;;;5111113;28;20019;-67
2021/09/01 12:40:03;;;;;;;4.57;1.58;;;;;;;;;;5089835;28;20012;-67
2021/09/01 12:42:41;;;;;;;5.10;1.45;;;;;;;;;;5107635;28;20283;-70
2021/09/01 12:45:08;;;;;;;4.65;1.77;;;;;;;;;;5107746;28;20034;-70
2021/09/01 12:47:34;;;;;;;8.38;1.90;;;;;;;;;;5092441;28;20485;-67
2021/09/01 12:50:02;;;;;;;6.47;1.77;;;;;;;;;;5110457;28;20063;-67
2021/09/01 12:52:28;;;;;;;6.10;1.85;;;;;;;;;;5106078;28;20559;-67
2021/09/01 12:54:56;;;;;;;5.10;1.40;;;;;;;;;;5110483;28;20047;-67
2021/09/01 12:57:23;;;;;;;4.57;1.45;;;;;;;;;;5092888;28;20020;-68
2021/09/01 12:59:49;;;;;;;6.93;1.60;;;;;;;;;;5110490;28;20603;-68
2021/09/01 13:02:16;;;;;;;7.47;1.30;;;;;;;;;;5107367;27;20031;-68
2021/09/01 13:04:42;;;;;;;4.35;1.70;;;;;;;;;;5102751;28;20020;-68
2021/09/01 13:07:09;;;;;;;5.38;1.10;;;;;;;;;;5105206;28;20061;-68
2021/09/01 13:09:35;;;;;;;3.53;1.25;;;;;;;;;;5108286;28;20027;-68
2021/09/01 13:12:01;;;;;;;8.45;1.73;;;;;;;;;;5104990;28;20081;-70
2021/09/01 13:14:28;;;;;;;4.43;1.20;;;;;;;;;;5104705;28;20062;-67
2021/09/01 13:16:54;;;;;;;4.60;1.27;;;;;;;;;;5107650;28;20393;-69
2021/09/01 13:19:20;;;;;;;4.30;1.10;;;;;;;;;;5111051;28;20034;-67
2021/09/01 13:21:46;;;;;;;7.43;1.50;;;;;;;;;;5109961;28;20463;-67
2021/09/01 13:24:12;;;;;;;5.55;1.33;;;;;;;;;;5088560;28;20516;-68
2021/09/01 13:26:39;;;;;;;5.28;1.25;;;;;;;;;;5106484;28;20413;-67
2021/09/01 13:29:05;;;;;;;4.82;1.15;;;;;;;;;;5109001;28;20023;-67
2021/09/01 13:31:34;;;;;;;4.05;1.20;;;;;;;;;;5110602;28;20031;-67
2021/09/01 13:34:01;;;;;;;3.47;1.20;;;;;;;;;;5107963;28;20125;-68
2021/09/01 13:36:27;;;;;;;4.72;1.85;;;;;;;;;;5110417;28;20408;-68
2021/09/01 13:38:54;;;;;;;2.28;1.00;;;;;;;;;;5111037;28;20110;-68
2021/09/01 13:41:20;;;;;;;5.38;1.23;;;;;;;;;;5110813;28;20027;-68
2021/09/01 13:43:46;;;;;;;3.45;0.75;;;;;;;;;;5106076;28;20016;-68
2021/09/01 13:46:12;;;;;;;2.90;0.80;;;;;;;;;;5097249;28;20038;-67
2021/09/01 13:48:40;;;;;;;2.83;1.02;;;;;;;;;;5109699;28;20024;-67
2021/09/01 13:51:07;;;;;;;3.95;0.95;;;;;;;;;;5110245;28;20063;-68
2021/09/01 13:53:33;;;;;;;4.05;1.20;;;;;;;;;;5106499;28;20036;-68
2021/09/01 13:56:04;;;;;;;1.73;0.75;;;;;;;;;;5105647;28;20034;-67
2021/09/01 13:58:30;;;;;;;4.45;0.90;;;;;;;;;;5086231;28;20048;-67
2021/09/01 14:00:58;;;;;;;2.65;1.10;;;;;;;;;;5107153;28;20031;-67
2021/09/01 14:03:25;;;;;;;3.42;1.00;;;;;;;;;;5102970;28;20528;-67
2021/09/01 14:05:51;;;;;;;5.85;1.10;;;;;;;;;;5108875;28;20397;-68
2021/09/01 14:08:17;;;;;;;4.55;1.15;;;;;;;;;;5100684;28;20046;-68
2021/09/01 14:10:44;;;;;;;4.25;1.20;;;;;;;;;;5091309;28;20058;-68
2021/09/01 14:13:10;;;;;;;5.00;1.15;;;;;;;;;;5101676;28;20043;-68
2021/09/01 14:15:36;;;;;;;7.20;1.40;;;;;;;;;;5105611;28;20028;-68
2021/09/01 14:18:03;;;;;;;5.40;1.67;;;;;;;;;;5107424;28;20024;-68
2021/09/01 14:20:32;;;;;;;3.90;1.77;;;;;;;;;;5087029;28;20489;-67
2021/09/01 14:22:58;;;;;;;6.47;2.05;;;;;;;;;;5099589;28;20679;-69
2021/09/01 14:25:25;;;;;;;4.53;1.40;;;;;;;;;;5105090;27;20478;-68
2021/09/01 14:27:51;;;;;;;5.22;1.50;;;;;;;;;;5105428;28;20023;-68
2021/09/01 14:30:17;;;;;;;5.63;1.88;;;;;;;;;;5089598;28;20062;-67
2021/09/01 14:32:44;;;;;;;7.25;1.55;;;;;;;;;;5105444;28;20035;-68
2021/09/01 14:35:11;;;;;;;4.82;1.80;;;;;;;;;;5103342;28;20031;-69